createdAt,value
2022-09-02T00:02:01.998Z,15.34
2022-09-02T00:04:29.001Z,15.34
2022-09-02T00:06:55.765Z,15.35
2022-09-02T00:09:25.101Z,15.29
2022-09-02T00:11:53.267Z,15.30
2022-09-02T00:14:24.279Z,15.31
2022-09-02T00:16:52.444Z,15.29
2022-09-02T00:19:22.179Z,15.30
2022-09-02T00:21:49.251Z,15.29
2022-09-02T00:24:16.271Z,15.28
2022-09-02T00:26:44.219Z,15.25
2022-09-02T00:29:11.492Z,15.26
2022-09-02T00:31:38.544Z,15.26
2022-09-02T00:34:05.803Z,15.21
2022-09-02T00:36:33.470Z,15.22
2022-09-02T00:39:00.215Z,15.24
2022-09-02T00:41:29.080Z,15.24
2022-09-02T00:44:01.554Z,15.24
2022-09-02T00:46:30.585Z,15.32
2022-09-02T00:49:01.382Z,15.32
2022-09-02T00:51:32.262Z,15.32
2022-09-02T00:53:59.435Z,15.34
2022-09-02T00:56:28.596Z,15.37
2022-09-02T00:58:55.979Z,15.36
2022-09-02T01:01:23.051Z,15.37
2022-09-02T01:03:50.618Z,15.38
2022-09-02T01:06:22.028Z,15.34
2022-09-02T01:08:54.428Z,15.40
2022-09-02T01:11:21.569Z,15.39
2022-09-02T01:13:48.377Z,15.41
2022-09-02T01:16:28.275Z,15.43
2022-09-02T01:18:56.787Z,15.47
2022-09-02T01:21:24.055Z,15.45
2022-09-02T01:23:51.721Z,15.48
2022-09-02T01:26:18.587Z,15.47
2022-09-02T01:28:45.417Z,15.48
2022-09-02T01:31:12.681Z,15.48
2022-09-02T01:33:39.746Z,15.51
2022-09-02T01:36:06.649Z,15.52
2022-09-02T01:38:33.413Z,15.57
2022-09-02T01:41:00.136Z,15.58
2022-09-02T01:43:28.107Z,15.58
2022-09-02T01:45:56.594Z,15.59
2022-09-02T01:48:26.160Z,15.64
2022-09-02T01:50:57.263Z,15.66
2022-09-02T01:53:24.069Z,15.66
2022-09-02T01:55:52.643Z,15.65
2022-09-02T01:58:19.792Z,15.69
2022-09-02T02:00:47.021Z,15.70
2022-09-02T02:03:14.371Z,15.74
2022-09-02T02:05:41.521Z,15.74
2022-09-02T02:08:08.352Z,15.81
2022-09-02T02:10:35.465Z,15.80
2022-09-02T02:13:02.666Z,15.79
2022-09-02T02:17:58.394Z,15.78
2022-09-02T02:20:27.208Z,15.77
2022-09-02T02:22:54.159Z,15.80
2022-09-02T02:25:21.135Z,15.79
2022-09-02T02:27:52.185Z,15.69
2022-09-02T02:30:21.750Z,15.77
2022-09-02T02:32:48.670Z,15.64
2022-09-02T02:35:19.289Z,15.66
2022-09-02T02:37:49.388Z,15.69
2022-09-02T02:40:19.712Z,15.73
2022-09-02T02:42:47.877Z,15.74
2022-09-02T02:45:15.468Z,15.70
2022-09-02T02:47:46.244Z,15.68
2022-09-02T02:50:16.724Z,15.63
2022-09-02T02:52:43.835Z,15.65
2022-09-02T02:55:12.525Z,15.63
2022-09-02T02:57:40.711Z,15.61
2022-09-02T03:00:28.822Z,15.63
2022-09-02T03:03:07.544Z,15.59
2022-09-02T03:05:35.958Z,15.58
2022-09-02T03:08:05.609Z,15.54
2022-09-02T03:10:33.857Z,15.54
2022-09-02T03:13:01.333Z,15.48
2022-09-02T03:15:28.612Z,15.43
2022-09-02T03:17:57.213Z,15.38
2022-09-02T03:20:24.848Z,15.35
2022-09-02T03:22:57.823Z,15.34
2022-09-02T03:25:26.722Z,15.28
2022-09-02T03:27:56.058Z,15.26
2022-09-02T03:30:29.886Z,15.20
2022-09-02T03:33:03.785Z,15.10
2022-09-02T03:35:32.930Z,15.08
2022-09-02T03:38:01.037Z,15.03
2022-09-02T03:40:29.657Z,14.96
2022-09-02T03:43:00.179Z,14.92
2022-09-02T03:45:29.055Z,14.87
2022-09-02T03:47:56.359Z,14.82
2022-09-02T03:50:30.058Z,14.76
2022-09-02T03:52:57.816Z,14.74
2022-09-02T03:55:25.334Z,14.67
2022-09-02T03:57:52.590Z,14.65
2022-09-02T04:00:29.987Z,14.61
2022-09-02T04:03:01.628Z,14.59
2022-09-02T04:05:29.380Z,14.65
2022-09-02T04:07:57.990Z,14.60
2022-09-02T04:10:25.590Z,14.59
2022-09-02T04:12:53.019Z,14.59
2022-09-02T04:15:20.969Z,14.53
2022-09-02T04:17:50.270Z,14.47
2022-09-02T04:20:19.685Z,14.43
2022-09-02T04:22:46.464Z,14.38
2022-09-02T04:25:13.420Z,14.36
2022-09-02T04:27:40.411Z,14.34
2022-09-02T04:30:09.377Z,14.33
2022-09-02T04:32:40.921Z,14.29
2022-09-02T04:35:09.878Z,14.26
2022-09-02T04:37:38.506Z,14.25
2022-09-02T04:40:05.626Z,14.25
2022-09-02T04:42:34.311Z,14.25
2022-09-02T04:45:01.266Z,14.21
2022-09-02T04:47:29.007Z,14.20
2022-09-02T04:49:56.475Z,14.20
2022-09-02T04:52:24.028Z,14.22
2022-09-02T04:54:51.132Z,14.20
2022-09-02T04:57:18.094Z,14.20
2022-09-02T04:59:45.164Z,14.17
2022-09-02T05:02:12.247Z,14.16
2022-09-02T05:04:40.314Z,14.17
2022-09-02T05:07:14.260Z,14.17
2022-09-02T05:09:44.817Z,14.24
2022-09-02T05:12:11.746Z,14.24
2022-09-02T05:14:49.031Z,14.24
2022-09-02T05:17:17.852Z,14.28
2022-09-02T05:19:45.724Z,14.31
2022-09-02T05:22:15.049Z,14.39
2022-09-02T05:24:43.192Z,14.42
2022-09-02T05:27:15.546Z,14.52
2022-09-02T05:29:45.305Z,14.58
2022-09-02T05:32:13.264Z,14.68
2022-09-02T05:34:40.185Z,14.77
2022-09-02T05:37:07.130Z,14.85
2022-09-02T05:39:35.434Z,14.96
2022-09-02T05:42:05.050Z,15.05
2022-09-02T05:44:33.156Z,15.17
2022-09-02T05:47:02.489Z,15.24
2022-09-02T05:49:29.353Z,15.29
2022-09-02T05:52:01.374Z,15.30
2022-09-02T05:54:35.551Z,15.43
2022-09-02T05:57:11.712Z,15.59
2022-09-02T05:59:43.487Z,15.70
2022-09-02T06:02:16.236Z,15.84
2022-09-02T06:04:48.632Z,15.94
2022-09-02T06:07:17.480Z,16.02
2022-09-02T06:09:47.233Z,16.00
2022-09-02T06:12:17.508Z,16.03
2022-09-02T06:14:44.758Z,16.21
2022-09-02T06:17:11.534Z,16.23
2022-09-02T06:19:45.583Z,16.30
2022-09-02T06:22:13.069Z,16.42
2022-09-02T06:24:41.773Z,16.31
2022-09-02T06:27:13.698Z,16.41
2022-09-02T06:29:46.143Z,16.45
2022-09-02T06:32:20.527Z,16.50
2022-09-02T06:34:49.243Z,16.55
2022-09-02T06:37:16.175Z,16.68
2022-09-02T06:39:44.962Z,16.81
2022-09-02T06:42:16.854Z,16.86
2022-09-02T06:45:06.953Z,16.89
2022-09-02T06:47:34.173Z,16.69
2022-09-02T06:50:01.301Z,16.96
2022-09-02T06:52:28.986Z,17.06
2022-09-02T06:54:56.191Z,17.08
2022-09-02T06:57:31.404Z,17.14
2022-09-02T07:00:08.295Z,17.24
2022-09-02T07:02:35.696Z,17.23
2022-09-02T07:05:15.647Z,17.26
2022-09-02T07:07:48.296Z,17.30
2022-09-02T07:10:16.102Z,17.34
2022-09-02T07:12:48.664Z,17.58
2022-09-02T07:15:17.172Z,17.71
2022-09-02T07:17:44.341Z,17.78
2022-09-02T07:20:26.795Z,17.91
2022-09-02T07:22:58.068Z,18.17
2022-09-02T07:25:27.573Z,18.34
2022-09-02T07:27:54.779Z,18.62
2022-09-02T07:30:22.423Z,18.79
2022-09-02T07:32:54.929Z,19.12
2022-09-02T07:35:23.725Z,19.44
2022-09-02T07:37:52.714Z,19.63
2022-09-02T07:40:21.417Z,19.87
2022-09-02T07:42:48.463Z,20.06
2022-09-02T07:45:16.543Z,20.45
2022-09-02T07:47:45.216Z,20.96
2022-09-02T07:50:18.828Z,21.44
2022-09-02T07:52:56.012Z,21.43
2022-09-02T07:55:24.237Z,21.76
2022-09-02T07:57:52.411Z,21.96
2022-09-02T08:00:20.677Z,22.20
2022-09-02T08:02:50.432Z,22.48
2022-09-02T08:05:22.963Z,22.60
2022-09-02T08:07:49.913Z,22.82
2022-09-02T08:10:17.425Z,22.90
2022-09-02T08:12:46.547Z,22.88
2022-09-02T08:15:16.332Z,23.07
2022-09-02T08:17:44.423Z,23.38
2022-09-02T08:20:12.879Z,23.76
2022-09-02T08:22:40.323Z,23.96
2022-09-02T08:25:08.301Z,24.14
2022-09-02T08:27:35.839Z,24.41
2022-09-02T08:30:02.749Z,24.60
2022-09-02T08:32:29.704Z,24.86
2022-09-02T08:34:56.460Z,24.94
2022-09-02T08:37:24.191Z,24.80
2022-09-02T08:39:50.915Z,24.90
2022-09-02T08:42:23.645Z,24.90
2022-09-02T08:45:00.012Z,25.40
2022-09-02T08:47:30.048Z,25.58
2022-09-02T08:50:00.841Z,25.78
2022-09-02T08:52:36.091Z,25.94
2022-09-02T08:55:03.352Z,26.05
2022-09-02T08:57:31.213Z,26.06
2022-09-02T09:00:01.176Z,26.25
2022-09-02T09:02:47.367Z,26.18
2022-09-02T09:05:31.231Z,26.22
2022-09-02T09:08:09.618Z,26.06
2022-09-02T09:11:10.767Z,26.43
2022-09-02T09:13:56.233Z,26.76
2022-09-02T09:16:48.531Z,26.99
2022-09-02T09:19:18.293Z,27.21
2022-09-02T09:21:45.176Z,27.44
2022-09-02T09:24:24.394Z,27.62
2022-09-02T09:26:51.150Z,27.45
2022-09-02T09:29:17.862Z,27.55
2022-09-02T09:31:46.011Z,27.42
2022-09-02T09:34:14.377Z,27.28
2022-09-02T09:36:41.080Z,27.79
2022-09-02T09:39:30.632Z,28.00
2022-09-02T09:42:03.488Z,28.30
2022-09-02T09:44:41.017Z,28.61
2022-09-02T09:47:19.852Z,28.25
2022-09-02T09:49:51.596Z,27.81
2022-09-02T09:52:27.058Z,27.88
2022-09-02T09:55:24.337Z,28.03
2022-09-02T09:58:08.565Z,27.73
2022-09-02T10:00:35.472Z,27.28
2022-09-02T10:03:05.402Z,26.73
2022-09-02T10:05:40.060Z,26.21
2022-09-02T10:08:21.003Z,26.16
2022-09-02T10:11:00.220Z,26.27
2022-09-02T10:13:37.526Z,26.61
2022-09-02T10:16:42.513Z,27.21
2022-09-02T10:19:27.585Z,27.31
2022-09-02T10:21:59.422Z,27.54
2022-09-02T10:24:32.156Z,27.46
2022-09-02T10:27:00.629Z,26.97
2022-09-02T10:29:39.821Z,26.97
2022-09-02T10:32:12.736Z,27.03
2022-09-02T10:35:13.287Z,27.16
2022-09-02T10:38:21.954Z,27.21
2022-09-02T10:40:54.277Z,27.65
2022-09-02T10:43:36.083Z,28.08
2022-09-02T10:46:07.907Z,27.94
2022-09-02T10:49:11.981Z,28.12
2022-09-02T10:51:47.724Z,28.66
2022-09-02T10:54:20.032Z,28.66
2022-09-02T10:57:28.967Z,28.27
2022-09-02T11:00:05.038Z,27.63
2022-09-02T11:02:38.223Z,27.45
2022-09-02T11:05:21.442Z,27.07
2022-09-02T11:08:02.782Z,26.49
2022-09-02T11:10:34.514Z,25.91
2022-09-02T11:13:05.382Z,25.65
2022-09-02T11:15:45.537Z,25.74
2022-09-02T11:18:26.701Z,26.63
2022-09-02T11:21:04.948Z,27.57
2022-09-02T11:23:51.945Z,27.98
2022-09-02T11:26:24.584Z,28.80
2022-09-02T11:29:01.335Z,29.88
2022-09-02T11:31:50.178Z,30.07
2022-09-02T11:34:22.875Z,30.47
2022-09-02T11:36:49.863Z,30.09
2022-09-02T11:39:36.323Z,29.76
2022-09-02T11:42:21.268Z,28.90
2022-09-02T11:45:10.445Z,28.72
2022-09-02T11:48:01.271Z,28.00
2022-09-02T11:50:39.493Z,27.59
2022-09-02T11:53:28.613Z,27.11
2022-09-02T11:55:58.644Z,25.85
2022-09-02T11:58:39.008Z,25.65
2022-09-02T12:01:06.918Z,26.22
2022-09-02T12:04:15.839Z,27.39
2022-09-02T12:06:31.585Z,28.78
2022-09-02T12:09:03.704Z,30.12
2022-09-02T12:11:40.016Z,31.10
2022-09-02T12:14:10.186Z,31.54
2022-09-02T12:16:41.678Z,32.73
2022-09-02T12:19:11.864Z,33.25
2022-09-02T12:22:16.565Z,34.30
2022-09-02T12:24:56.663Z,33.68
2022-09-02T12:27:36.824Z,32.83
2022-09-02T12:30:07.340Z,31.75
2022-09-02T12:32:46.421Z,30.68
2022-09-02T12:35:35.419Z,29.65
2022-09-02T12:38:09.932Z,29.16
2022-09-02T12:40:42.226Z,29.14
2022-09-02T12:43:27.171Z,29.46
2022-09-02T12:45:57.828Z,29.52
2022-09-02T12:48:30.382Z,29.23
2022-09-02T12:51:05.245Z,28.98
2022-09-02T12:53:35.002Z,29.58
2022-09-02T12:56:27.751Z,29.26
2022-09-02T12:58:58.941Z,28.76
2022-09-02T13:01:40.408Z,28.44
2022-09-02T13:04:13.226Z,28.06
2022-09-02T13:06:58.486Z,27.79
2022-09-02T13:09:41.586Z,27.74
2022-09-02T13:12:54.723Z,27.36
2022-09-02T13:15:26.289Z,28.43
2022-09-02T13:18:09.216Z,29.74
2022-09-02T13:21:05.363Z,30.85
2022-09-02T13:23:54.232Z,31.02
2022-09-02T13:26:49.386Z,30.89
2022-09-02T13:29:54.058Z,30.01
2022-09-02T13:32:20.689Z,29.34
2022-09-02T13:34:49.283Z,28.42
2022-09-02T13:37:36.502Z,27.72
2022-09-02T13:40:08.225Z,27.21
2022-09-02T13:42:34.959Z,26.53
2022-09-02T13:45:11.350Z,26.47
2022-09-02T13:47:38.147Z,26.23
2022-09-02T13:50:06.540Z,26.16
2022-09-02T13:53:17.734Z,26.14
2022-09-02T13:55:20.965Z,25.94
2022-09-02T13:57:57.918Z,25.70
2022-09-02T14:00:32.658Z,25.73
2022-09-02T14:03:03.173Z,25.50
2022-09-02T14:05:30.899Z,25.50
2022-09-02T14:08:00.232Z,25.33
2022-09-02T14:10:28.392Z,25.14
2022-09-02T14:12:58.587Z,25.01
2022-09-02T14:15:27.595Z,24.68
2022-09-02T14:18:22.688Z,24.66
2022-09-02T14:21:09.774Z,24.29
2022-09-02T14:23:38.999Z,24.53
2022-09-02T14:26:07.195Z,24.56
2022-09-02T14:28:35.069Z,24.46
2022-09-02T14:31:06.732Z,24.22
2022-09-02T14:33:36.583Z,24.21
2022-09-02T14:36:15.670Z,24.21
2022-09-02T14:38:46.353Z,24.31
2022-09-02T14:41:24.809Z,24.44
2022-09-02T14:43:57.294Z,24.26
2022-09-02T14:46:33.621Z,24.26
2022-09-02T14:49:06.217Z,24.15
2022-09-02T14:51:36.077Z,24.29
2022-09-02T14:54:03.451Z,24.30
2022-09-02T14:56:51.421Z,24.25
2022-09-02T14:59:18.870Z,24.21
2022-09-02T15:01:51.646Z,24.01
2022-09-02T15:04:19.639Z,24.17
2022-09-02T15:06:47.030Z,24.13
2022-09-02T15:09:16.459Z,23.87
2022-09-02T15:11:46.987Z,24.01
2022-09-02T15:14:14.036Z,23.96
2022-09-02T15:16:41.345Z,24.06
2022-09-02T15:19:08.189Z,23.84
2022-09-02T15:21:34.966Z,23.92
2022-09-02T15:24:01.897Z,24.03
2022-09-02T15:26:28.611Z,23.97
2022-09-02T15:28:55.482Z,23.95
2022-09-02T15:31:22.355Z,24.01
2022-09-02T15:33:51.776Z,23.99
2022-09-02T15:36:19.377Z,24.03
2022-09-02T15:38:46.090Z,23.97
2022-09-02T15:41:18.911Z,24.03
2022-09-02T15:43:47.065Z,24.04
2022-09-02T15:46:24.622Z,23.94
2022-09-02T15:48:52.319Z,23.67
2022-09-02T15:51:20.956Z,23.74
2022-09-02T15:53:49.388Z,23.54
2022-09-02T15:56:20.680Z,23.62
2022-09-02T15:58:47.421Z,23.46
2022-09-02T16:01:14.564Z,23.38
2022-09-02T16:03:41.479Z,23.45
2022-09-02T16:06:11.292Z,23.46
2022-09-02T16:08:38.120Z,23.49
2022-09-02T16:11:07.417Z,23.27
2022-09-02T16:13:35.730Z,23.27
2022-09-02T16:16:04.779Z,23.28
2022-09-02T16:18:32.050Z,23.43
2022-09-02T16:20:58.895Z,23.52
2022-09-02T16:23:25.759Z,23.39
2022-09-02T16:26:09.878Z,23.35
2022-09-02T16:28:37.958Z,23.41
2022-09-02T16:31:05.991Z,23.08
2022-09-02T16:33:33.892Z,22.94
2022-09-02T16:36:00.623Z,22.80
2022-09-02T16:38:27.594Z,22.95
2022-09-02T16:40:55.891Z,22.84
2022-09-02T16:43:23.328Z,22.79
2022-09-02T16:45:51.933Z,22.81
2022-09-02T16:48:23.768Z,22.87
2022-09-02T16:50:52.513Z,22.69
2022-09-02T16:53:19.251Z,22.71
2022-09-02T16:55:47.625Z,22.74
2022-09-02T16:58:14.546Z,22.79
2022-09-02T17:00:41.950Z,22.91
2022-09-02T17:03:12.652Z,22.84
2022-09-02T17:05:39.785Z,22.71
2022-09-02T17:08:07.226Z,22.70
2022-09-02T17:10:35.483Z,22.74
2022-09-02T17:13:02.813Z,22.74
2022-09-02T17:15:30.857Z,22.69
2022-09-02T17:17:57.741Z,22.73
2022-09-02T17:20:24.487Z,22.46
2022-09-02T17:22:51.665Z,22.49
2022-09-02T17:25:18.799Z,22.37
2022-09-02T17:27:45.549Z,22.41
2022-09-02T17:30:12.548Z,22.33
2022-09-02T17:32:39.997Z,22.13
2022-09-02T17:35:08.682Z,22.21
2022-09-02T17:37:37.784Z,22.23
2022-09-02T17:40:29.269Z,22.21
2022-09-02T17:42:56.608Z,22.14
2022-09-02T17:45:23.618Z,22.04
2022-09-02T17:47:50.400Z,21.97
2022-09-02T17:50:18.101Z,21.90
2022-09-02T17:52:45.776Z,21.79
2022-09-02T17:55:13.062Z,21.73
2022-09-02T17:57:59.942Z,21.66
2022-09-02T18:00:28.885Z,21.56
2022-09-02T18:03:20.281Z,21.48
2022-09-02T18:05:55.464Z,21.32
2022-09-02T18:08:36.293Z,21.33
2022-09-02T18:11:05.401Z,21.17
2022-09-02T18:13:41.349Z,21.19
2022-09-02T18:16:29.553Z,21.25
2022-09-02T18:19:22.812Z,21.24
2022-09-02T18:21:52.461Z,21.20
2022-09-02T18:24:19.420Z,21.20
2022-09-02T18:27:04.408Z,21.21
2022-09-02T18:29:46.473Z,21.15
2022-09-02T18:32:36.306Z,21.19
2022-09-02T18:35:26.222Z,21.21
2022-09-02T18:38:31.800Z,21.10
2022-09-02T18:41:23.710Z,20.96
2022-09-02T18:44:10.214Z,20.93
2022-09-02T18:46:48.994Z,21.04
2022-09-02T18:49:15.878Z,20.99
2022-09-02T18:51:43.964Z,20.98
2022-09-02T18:54:25.943Z,20.80
2022-09-02T18:57:06.300Z,20.87
2022-09-02T18:59:45.505Z,20.82
2022-09-02T19:02:31.318Z,20.83
2022-09-02T19:04:59.366Z,20.89
2022-09-02T19:07:47.447Z,20.83
2022-09-02T19:10:14.325Z,20.80
2022-09-02T19:12:42.465Z,20.71
2022-09-02T19:15:13.051Z,20.71
2022-09-02T19:17:40.876Z,20.72
2022-09-02T19:20:08.729Z,20.71
2022-09-02T19:22:44.946Z,20.61
2022-09-02T19:25:14.992Z,20.59
2022-09-02T19:27:43.978Z,20.51
2022-09-02T19:30:15.903Z,20.52
2022-09-02T19:32:44.299Z,20.39
2022-09-02T19:35:16.798Z,20.32
2022-09-02T19:37:48.320Z,20.33
2022-09-02T19:40:23.615Z,20.25
2022-09-02T19:42:53.712Z,20.21
2022-09-02T19:45:21.899Z,20.15
2022-09-02T19:48:06.589Z,20.19
2022-09-02T19:50:37.378Z,20.17
2022-09-02T19:53:04.341Z,20.14
2022-09-02T19:55:33.792Z,20.08
2022-09-02T19:58:01.149Z,20.02
2022-09-02T20:00:28.171Z,19.98
2022-09-02T20:02:55.766Z,19.81
2022-09-02T20:05:25.343Z,19.76
2022-09-02T20:07:53.904Z,19.75
2022-09-02T20:10:27.702Z,19.67
2022-09-02T20:12:55.433Z,19.68
2022-09-02T20:15:22.162Z,19.63
2022-09-02T20:17:49.695Z,19.54
2022-09-02T20:20:19.175Z,19.46
2022-09-02T20:22:54.767Z,19.42
2022-09-02T20:25:27.302Z,19.35
2022-09-02T20:28:09.022Z,19.31
2022-09-02T20:30:38.875Z,19.23
2022-09-02T20:33:29.836Z,19.18
2022-09-02T20:36:08.453Z,19.11
2022-09-02T20:38:41.644Z,19.04
2022-09-02T20:41:27.213Z,18.98
2022-09-02T20:44:23.689Z,18.88
2022-09-02T20:47:12.055Z,18.84
2022-09-02T20:50:01.409Z,18.76
2022-09-02T20:52:50.022Z,18.67
2022-09-02T20:55:38.774Z,18.56
2022-09-02T20:58:17.727Z,18.52
2022-09-02T21:01:02.952Z,18.47
2022-09-02T21:03:41.190Z,18.40
2022-09-02T21:06:10.850Z,18.32
2022-09-02T21:08:47.998Z,18.29
2022-09-02T21:11:16.058Z,18.25
2022-09-02T21:13:59.069Z,18.20
2022-09-02T21:16:39.733Z,18.12
2022-09-02T21:19:06.446Z,18.06
2022-09-02T21:21:39.304Z,17.99
2022-09-02T21:24:28.304Z,17.90
2022-09-02T21:27:16.856Z,17.83
2022-09-02T21:29:59.037Z,17.75
2022-09-02T21:32:44.498Z,17.68
2022-09-02T21:35:14.742Z,17.64
2022-09-02T21:37:43.852Z,17.63
2022-09-02T21:40:17.432Z,17.57
2022-09-02T21:42:50.087Z,17.53
2022-09-02T21:46:05.749Z,17.49
2022-09-02T21:48:35.179Z,17.42
2022-09-02T21:51:05.156Z,17.37
2022-09-02T21:54:04.550Z,17.28
2022-09-02T21:56:38.982Z,17.30
2022-09-02T21:59:27.880Z,17.29
2022-09-02T22:02:00.435Z,17.24
2022-09-02T22:04:50.364Z,17.21
2022-09-02T22:07:23.789Z,17.19
2022-09-02T22:09:58.515Z,17.13
2022-09-02T22:12:26.805Z,17.09
2022-09-02T22:15:07.942Z,17.04
2022-09-02T22:17:51.810Z,16.98
2022-09-02T22:20:22.229Z,16.93
2022-09-02T22:22:54.651Z,16.94
2022-09-02T22:25:23.052Z,16.88
2022-09-02T22:27:55.698Z,16.86
2022-09-02T22:30:23.101Z,16.83
2022-09-02T22:32:54.153Z,16.78
2022-09-02T22:35:31.621Z,16.72
2022-09-02T22:38:26.552Z,16.66
2022-09-02T22:41:28.072Z,16.62
2022-09-02T22:44:20.305Z,16.55
2022-09-02T22:47:27.761Z,16.53
2022-09-02T22:50:16.141Z,16.46
2022-09-02T22:52:47.291Z,16.44
2022-09-02T22:55:26.950Z,16.35
2022-09-02T22:58:13.174Z,16.41
2022-09-02T23:00:47.110Z,16.38
2022-09-02T23:03:21.542Z,16.29
2022-09-02T23:06:08.428Z,16.27
2022-09-02T23:08:38.042Z,16.22
2022-09-02T23:11:11.810Z,16.19
2022-09-02T23:14:16.429Z,16.15
2022-09-02T23:17:09.188Z,16.13
2022-09-02T23:19:44.365Z,16.11
2022-09-02T23:22:34.166Z,16.05
2022-09-02T23:25:30.312Z,16.05
2022-09-02T23:28:05.147Z,15.97
2022-09-02T23:30:32.011Z,15.96
2022-09-02T23:33:00.737Z,15.98
2022-09-02T23:35:43.726Z,15.97
2022-09-02T23:38:13.402Z,15.93
2022-09-02T23:40:46.047Z,15.88
2022-09-02T23:43:18.102Z,15.89
2022-09-02T23:45:46.566Z,15.86
2022-09-02T23:48:50.414Z,15.85
2022-09-02T23:51:32.390Z,15.82
2022-09-02T23:54:29.909Z,15.79
2022-09-02T23:57:18.349Z,15.76
